Lewiston, Michigan
Current Conditions -  °F | °C
As of 9:53 PM on Friday 21 Nov 2014 (Local Time) from KGLR Reporting Station
Overcast Overcast  
Wind Chill:   Ceiling: 12000
Heat Index: 22°   Visibility: 9mi
Dew Point: 15°   Wind: 20mph
Humidity: 75%   Direction: 210°SSW
Pressure: 30.11"   Gusts: NA
Location:  44.88°N, 84.31°W
Report Text: KGLR 220253Z AUTO 21017KT 9SM OVC120 M06/M09 A3011 RMK AO2 SLP219 T10561094 58026
Loading
Personal Weather Stations






























Interactive Weather Map New forecast layout! Learn more

10-Day Weather Forecast

Advertisements
Track Severe Weather on mobile